sensor_id;sensor_type;location;lat;lon;timestamp;P1;durP1;ratioP1;P2;durP2;ratioP2
10823;SDS011;39116;59.332;18.034;2022-10-16T00:00:10;22.30;;;17.38;;
10823;SDS011;39116;59.332;18.034;2022-10-16T00:02:37;21.00;;;16.17;;
10823;SDS011;39116;59.332;18.034;2022-10-16T00:05:04;20.98;;;16.08;;
10823;SDS011;39116;59.332;18.034;2022-10-16T00:07:30;22.70;;;16.23;;
10823;SDS011;39116;59.332;18.034;2022-10-16T00:09:58;18.92;;;14.35;;
10823;SDS011;39116;59.332;18.034;2022-10-16T00:12:25;20.55;;;14.80;;
10823;SDS011;39116;59.332;18.034;2022-10-16T00:14:51;20.52;;;14.40;;
10823;SDS011;39116;59.332;18.034;2022-10-16T00:17:18;18.83;;;15.95;;
10823;SDS011;39116;59.332;18.034;2022-10-16T00:19:45;19.08;;;14.57;;
10823;SDS011;39116;59.332;18.034;2022-10-16T00:22:11;19.52;;;14.82;;
10823;SDS011;39116;59.332;18.034;2022-10-16T00:24:38;18.50;;;14.27;;
10823;SDS011;39116;59.332;18.034;2022-10-16T00:27:06;17.20;;;13.68;;
10823;SDS011;39116;59.332;18.034;2022-10-16T00:29:32;16.92;;;13.20;;
10823;SDS011;39116;59.332;18.034;2022-10-16T00:31:59;18.30;;;12.98;;
10823;SDS011;39116;59.332;18.034;2022-10-16T00:34:25;18.20;;;13.88;;
10823;SDS011;39116;59.332;18.034;2022-10-16T00:36:52;16.15;;;13.80;;
10823;SDS011;39116;59.332;18.034;2022-10-16T00:39:18;16.55;;;12.90;;
10823;SDS011;39116;59.332;18.034;2022-10-16T00:41:45;17.13;;;13.25;;
10823;SDS011;39116;59.332;18.034;2022-10-16T00:47:00;17.90;;;14.05;;
10823;SDS011;39116;59.332;18.034;2022-10-16T00:49:27;17.15;;;13.23;;
10823;SDS011;39116;59.332;18.034;2022-10-16T00:51:53;15.38;;;12.70;;
10823;SDS011;39116;59.332;18.034;2022-10-16T00:54:22;16.85;;;13.20;;
10823;SDS011;39116;59.332;18.034;2022-10-16T00:56:49;18.52;;;13.10;;
10823;SDS011;39116;59.332;18.034;2022-10-16T00:59:18;19.88;;;14.05;;
10823;SDS011;39116;59.332;18.034;2022-10-16T01:01:45;16.65;;;12.32;;
10823;SDS011;39116;59.332;18.034;2022-10-16T01:04:13;20.83;;;13.70;;
10823;SDS011;39116;59.332;18.034;2022-10-16T01:06:41;18.17;;;13.88;;
10823;SDS011;39116;59.332;18.034;2022-10-16T01:09:11;16.20;;;13.45;;
10823;SDS011;39116;59.332;18.034;2022-10-16T01:11:41;16.67;;;13.35;;
10823;SDS011;39116;59.332;18.034;2022-10-16T01:14:11;19.05;;;14.63;;
10823;SDS011;39116;59.332;18.034;2022-10-16T01:16:40;20.50;;;14.82;;
10823;SDS011;39116;59.332;18.034;2022-10-16T01:19:14;19.67;;;15.40;;
10823;SDS011;39116;59.332;18.034;2022-10-16T01:21:43;18.42;;;14.13;;
10823;SDS011;39116;59.332;18.034;2022-10-16T01:24:12;19.05;;;14.82;;
10823;SDS011;39116;59.332;18.034;2022-10-16T01:27:01;20.92;;;15.02;;
10823;SDS011;39116;59.332;18.034;2022-10-16T01:29:29;19.55;;;14.85;;
10823;SDS011;39116;59.332;18.034;2022-10-16T01:31:57;19.90;;;14.35;;
10823;SDS011;39116;59.332;18.034;2022-10-16T01:34:28;16.88;;;14.40;;
10823;SDS011;39116;59.332;18.034;2022-10-16T01:37:00;16.38;;;13.57;;
10823;SDS011;39116;59.332;18.034;2022-10-16T01:39:29;16.60;;;13.65;;
10823;SDS011;39116;59.332;18.034;2022-10-16T01:41:57;15.52;;;12.95;;
10823;SDS011;39116;59.332;18.034;2022-10-16T01:44:28;18.45;;;13.43;;
10823;SDS011;39116;59.332;18.034;2022-10-16T01:46:55;15.88;;;13.32;;
10823;SDS011;39116;59.332;18.034;2022-10-16T01:49:23;17.77;;;13.13;;
10823;SDS011;39116;59.332;18.034;2022-10-16T01:51:52;18.65;;;13.45;;
10823;SDS011;39116;59.332;18.034;2022-10-16T01:54:20;16.63;;;12.85;;
10823;SDS011;39116;59.332;18.034;2022-10-16T01:56:49;15.38;;;12.77;;
10823;SDS011;39116;59.332;18.034;2022-10-16T01:59:18;14.60;;;12.18;;
10823;SDS011;39116;59.332;18.034;2022-10-16T02:01:48;17.30;;;12.35;;
10823;SDS011;39116;59.332;18.034;2022-10-16T02:04:17;19.02;;;13.68;;
10823;SDS011;39116;59.332;18.034;2022-10-16T02:06:45;15.43;;;12.25;;
10823;SDS011;39116;59.332;18.034;2022-10-16T02:09:11;15.10;;;12.48;;
10823;SDS011;39116;59.332;18.034;2022-10-16T02:11:38;16.42;;;12.18;;
10823;SDS011;39116;59.332;18.034;2022-10-16T02:14:05;14.57;;;12.18;;
10823;SDS011;39116;59.332;18.034;2022-10-16T02:16:33;14.80;;;12.13;;
10823;SDS011;39116;59.332;18.034;2022-10-16T02:19:00;16.35;;;12.50;;
10823;SDS011;39116;59.332;18.034;2022-10-16T02:21:28;16.02;;;13.02;;
10823;SDS011;39116;59.332;18.034;2022-10-16T02:23:57;16.02;;;13.07;;
10823;SDS011;39116;59.332;18.034;2022-10-16T02:26:26;13.38;;;11.50;;
10823;SDS011;39116;59.332;18.034;2022-10-16T02:28:55;13.48;;;11.55;;
10823;SDS011;39116;59.332;18.034;2022-10-16T02:31:24;14.18;;;12.45;;
10823;SDS011;39116;59.332;18.034;2022-10-16T02:33:53;15.45;;;12.68;;
10823;SDS011;39116;59.332;18.034;2022-10-16T02:36:22;16.23;;;12.05;;
10823;SDS011;39116;59.332;18.034;2022-10-16T02:38:49;15.00;;;12.77;;
10823;SDS011;39116;59.332;18.034;2022-10-16T02:41:16;14.43;;;12.32;;
10823;SDS011;39116;59.332;18.034;2022-10-16T02:43:42;13.43;;;11.35;;
10823;SDS011;39116;59.332;18.034;2022-10-16T02:46:09;13.98;;;11.57;;
10823;SDS011;39116;59.332;18.034;2022-10-16T02:48:35;14.73;;;11.75;;
10823;SDS011;39116;59.332;18.034;2022-10-16T02:51:02;17.45;;;11.60;;
10823;SDS011;39116;59.332;18.034;2022-10-16T02:53:30;15.25;;;11.45;;
10823;SDS011;39116;59.332;18.034;2022-10-16T02:55:57;13.10;;;10.65;;
10823;SDS011;39116;59.332;18.034;2022-10-16T02:58:23;14.05;;;11.10;;
10823;SDS011;39116;59.332;18.034;2022-10-16T03:00:50;12.63;;;11.18;;
10823;SDS011;39116;59.332;18.034;2022-10-16T03:03:16;12.75;;;11.30;;
10823;SDS011;39116;59.332;18.034;2022-10-16T03:05:43;12.10;;;10.27;;
10823;SDS011;39116;59.332;18.034;2022-10-16T03:08:10;12.85;;;10.43;;
10823;SDS011;39116;59.332;18.034;2022-10-16T03:10:38;15.25;;;10.70;;
10823;SDS011;39116;59.332;18.034;2022-10-16T03:13:05;13.40;;;10.95;;
10823;SDS011;39116;59.332;18.034;2022-10-16T03:15:31;11.55;;;10.35;;
10823;SDS011;39116;59.332;18.034;2022-10-16T03:17:58;13.88;;;10.57;;
10823;SDS011;39116;59.332;18.034;2022-10-16T03:20:25;12.48;;;10.18;;
10823;SDS011;39116;59.332;18.034;2022-10-16T03:22:51;12.18;;;10.00;;
10823;SDS011;39116;59.332;18.034;2022-10-16T03:25:18;12.15;;;9.43;;
10823;SDS011;39116;59.332;18.034;2022-10-16T03:27:46;11.55;;;9.98;;
10823;SDS011;39116;59.332;18.034;2022-10-16T03:30:13;11.52;;;9.88;;
10823;SDS011;39116;59.332;18.034;2022-10-16T03:32:39;13.15;;;10.63;;
10823;SDS011;39116;59.332;18.034;2022-10-16T03:35:06;12.23;;;9.63;;
10823;SDS011;39116;59.332;18.034;2022-10-16T03:37:33;12.73;;;10.27;;
10823;SDS011;39116;59.332;18.034;2022-10-16T03:39:59;10.80;;;9.70;;
10823;SDS011;39116;59.332;18.034;2022-10-16T03:42:26;13.40;;;10.15;;
10823;SDS011;39116;59.332;18.034;2022-10-16T03:44:54;12.98;;;10.18;;
10823;SDS011;39116;59.332;18.034;2022-10-16T03:47:20;12.55;;;10.13;;
10823;SDS011;39116;59.332;18.034;2022-10-16T03:49:48;12.75;;;10.48;;
10823;SDS011;39116;59.332;18.034;2022-10-16T03:52:15;11.77;;;9.35;;
10823;SDS011;39116;59.332;18.034;2022-10-16T03:54:41;12.23;;;9.65;;
10823;SDS011;39116;59.332;18.034;2022-10-16T03:57:08;13.13;;;10.45;;
10823;SDS011;39116;59.332;18.034;2022-10-16T03:59:34;11.05;;;9.93;;
10823;SDS011;39116;59.332;18.034;2022-10-16T04:02:02;10.98;;;9.43;;
10823;SDS011;39116;59.332;18.034;2022-10-16T04:04:29;10.77;;;9.32;;
10823;SDS011;39116;59.332;18.034;2022-10-16T04:06:55;11.68;;;9.38;;
10823;SDS011;39116;59.332;18.034;2022-10-16T04:09:22;11.27;;;9.00;;
10823;SDS011;39116;59.332;18.034;2022-10-16T04:11:48;11.95;;;9.27;;
10823;SDS011;39116;59.332;18.034;2022-10-16T04:14:15;10.88;;;8.95;;
10823;SDS011;39116;59.332;18.034;2022-10-16T04:16:42;10.82;;;9.02;;
10823;SDS011;39116;59.332;18.034;2022-10-16T04:19:10;10.52;;;8.70;;
10823;SDS011;39116;59.332;18.034;2022-10-16T04:21:37;10.00;;;8.68;;
10823;SDS011;39116;59.332;18.034;2022-10-16T04:24:03;11.65;;;8.98;;
10823;SDS011;39116;59.332;18.034;2022-10-16T04:26:30;9.85;;;8.52;;
10823;SDS011;39116;59.332;18.034;2022-10-16T04:28:56;11.10;;;8.55;;
10823;SDS011;39116;59.332;18.034;2022-10-16T04:31:23;9.00;;;8.07;;
10823;SDS011;39116;59.332;18.034;2022-10-16T04:33:49;9.93;;;8.20;;
10823;SDS011;39116;59.332;18.034;2022-10-16T04:36:17;8.88;;;7.25;;
10823;SDS011;39116;59.332;18.034;2022-10-16T04:38:44;8.10;;;7.15;;
10823;SDS011;39116;59.332;18.034;2022-10-16T04:41:10;11.05;;;7.90;;
10823;SDS011;39116;59.332;18.034;2022-10-16T04:43:37;9.65;;;7.88;;
10823;SDS011;39116;59.332;18.034;2022-10-16T04:46:04;10.52;;;7.95;;
10823;SDS011;39116;59.332;18.034;2022-10-16T04:48:30;8.93;;;7.20;;
10823;SDS011;39116;59.332;18.034;2022-10-16T04:50:57;8.07;;;7.28;;
10823;SDS011;39116;59.332;18.034;2022-10-16T04:53:25;9.43;;;7.90;;
10823;SDS011;39116;59.332;18.034;2022-10-16T04:55:52;8.57;;;7.68;;
10823;SDS011;39116;59.332;18.034;2022-10-16T04:58:18;7.95;;;7.03;;
10823;SDS011;39116;59.332;18.034;2022-10-16T05:00:45;7.72;;;6.53;;
10823;SDS011;39116;59.332;18.034;2022-10-16T05:03:12;8.55;;;6.78;;
10823;SDS011;39116;59.332;18.034;2022-10-16T05:05:41;6.88;;;6.15;;
10823;SDS011;39116;59.332;18.034;2022-10-16T05:08:08;11.65;;;7.50;;
10823;SDS011;39116;59.332;18.034;2022-10-16T05:10:36;8.98;;;7.35;;
10823;SDS011;39116;59.332;18.034;2022-10-16T05:13:03;7.65;;;6.80;;
10823;SDS011;39116;59.332;18.034;2022-10-16T05:15:29;8.25;;;6.47;;
10823;SDS011;39116;59.332;18.034;2022-10-16T05:17:56;9.38;;;7.18;;
10823;SDS011;39116;59.332;18.034;2022-10-16T05:20:22;9.70;;;7.25;;
10823;SDS011;39116;59.332;18.034;2022-10-16T05:22:49;9.25;;;7.53;;
10823;SDS011;39116;59.332;18.034;2022-10-16T05:25:16;10.13;;;8.00;;
10823;SDS011;39116;59.332;18.034;2022-10-16T05:27:46;9.20;;;7.82;;
10823;SDS011;39116;59.332;18.034;2022-10-16T05:30:13;14.35;;;7.78;;
10823;SDS011;39116;59.332;18.034;2022-10-16T05:32:39;10.98;;;7.72;;
10823;SDS011;39116;59.332;18.034;2022-10-16T05:35:06;9.65;;;7.65;;
10823;SDS011;39116;59.332;18.034;2022-10-16T05:37:32;10.65;;;8.05;;
10823;SDS011;39116;59.332;18.034;2022-10-16T05:39:59;11.20;;;8.50;;
10823;SDS011;39116;59.332;18.034;2022-10-16T05:42:25;11.70;;;8.80;;
10823;SDS011;39116;59.332;18.034;2022-10-16T05:44:53;11.75;;;8.57;;
10823;SDS011;39116;59.332;18.034;2022-10-16T05:47:20;12.48;;;9.48;;
10823;SDS011;39116;59.332;18.034;2022-10-16T05:49:47;10.88;;;9.60;;
10823;SDS011;39116;59.332;18.034;2022-10-16T05:52:13;13.95;;;10.05;;
10823;SDS011;39116;59.332;18.034;2022-10-16T05:54:40;12.88;;;9.88;;
10823;SDS011;39116;59.332;18.034;2022-10-16T05:57:06;12.18;;;10.38;;
10823;SDS011;39116;59.332;18.034;2022-10-16T05:59:33;15.18;;;10.60;;
10823;SDS011;39116;59.332;18.034;2022-10-16T06:02:01;13.57;;;10.25;;
10823;SDS011;39116;59.332;18.034;2022-10-16T06:04:27;14.02;;;10.15;;
10823;SDS011;39116;59.332;18.034;2022-10-16T06:06:54;14.90;;;10.57;;
10823;SDS011;39116;59.332;18.034;2022-10-16T06:09:25;12.35;;;9.98;;
10823;SDS011;39116;59.332;18.034;2022-10-16T06:11:51;16.17;;;11.15;;
10823;SDS011;39116;59.332;18.034;2022-10-16T06:14:18;14.20;;;10.85;;
10823;SDS011;39116;59.332;18.034;2022-10-16T06:16:45;14.93;;;11.77;;
10823;SDS011;39116;59.332;18.034;2022-10-16T06:19:13;17.40;;;12.60;;
10823;SDS011;39116;59.332;18.034;2022-10-16T06:21:41;15.07;;;12.70;;
10823;SDS011;39116;59.332;18.034;2022-10-16T06:24:07;19.20;;;13.38;;
10823;SDS011;39116;59.332;18.034;2022-10-16T06:26:34;15.18;;;13.32;;
10823;SDS011;39116;59.332;18.034;2022-10-16T06:29:00;16.08;;;13.45;;
10823;SDS011;39116;59.332;18.034;2022-10-16T06:31:28;18.95;;;14.68;;
10823;SDS011;39116;59.332;18.034;2022-10-16T06:33:56;18.85;;;14.05;;
10823;SDS011;39116;59.332;18.034;2022-10-16T06:36:24;17.55;;;14.00;;
10823;SDS011;39116;59.332;18.034;2022-10-16T06:38:51;20.35;;;14.27;;
10823;SDS011;39116;59.332;18.034;2022-10-16T06:41:18;18.50;;;14.23;;
10823;SDS011;39116;59.332;18.034;2022-10-16T06:43:45;15.65;;;13.65;;
10823;SDS011;39116;59.332;18.034;2022-10-16T06:46:12;17.60;;;14.13;;
10823;SDS011;39116;59.332;18.034;2022-10-16T06:48:39;20.52;;;15.10;;
10823;SDS011;39116;59.332;18.034;2022-10-16T06:51:06;18.20;;;15.23;;
10823;SDS011;39116;59.332;18.034;2022-10-16T06:53:36;18.67;;;13.70;;
10823;SDS011;39116;59.332;18.034;2022-10-16T06:56:07;20.38;;;14.57;;
10823;SDS011;39116;59.332;18.034;2022-10-16T06:58:33;18.70;;;14.55;;
10823;SDS011;39116;59.332;18.034;2022-10-16T07:01:00;20.23;;;14.40;;
10823;SDS011;39116;59.332;18.034;2022-10-16T07:03:26;19.13;;;14.77;;
10823;SDS011;39116;59.332;18.034;2022-10-16T07:05:53;21.02;;;14.70;;
10823;SDS011;39116;59.332;18.034;2022-10-16T07:08:19;19.98;;;14.40;;
10823;SDS011;39116;59.332;18.034;2022-10-16T07:10:47;17.77;;;13.70;;
10823;SDS011;39116;59.332;18.034;2022-10-16T07:13:14;16.42;;;13.13;;
10823;SDS011;39116;59.332;18.034;2022-10-16T07:15:40;17.80;;;13.00;;
10823;SDS011;39116;59.332;18.034;2022-10-16T07:18:07;13.50;;;12.10;;
10823;SDS011;39116;59.332;18.034;2022-10-16T07:20:34;14.38;;;11.75;;
10823;SDS011;39116;59.332;18.034;2022-10-16T07:23:00;14.75;;;11.55;;
10823;SDS011;39116;59.332;18.034;2022-10-16T07:25:27;13.07;;;11.05;;
10823;SDS011;39116;59.332;18.034;2022-10-16T07:27:55;17.27;;;12.15;;
10823;SDS011;39116;59.332;18.034;2022-10-16T07:30:22;13.00;;;10.70;;
10823;SDS011;39116;59.332;18.034;2022-10-16T07:32:48;13.05;;;10.00;;
10823;SDS011;39116;59.332;18.034;2022-10-16T07:35:15;10.82;;;9.13;;
10823;SDS011;39116;59.332;18.034;2022-10-16T07:37:43;11.32;;;9.95;;
10823;SDS011;39116;59.332;18.034;2022-10-16T07:40:10;14.07;;;9.38;;
10823;SDS011;39116;59.332;18.034;2022-10-16T07:42:37;10.50;;;8.68;;
10823;SDS011;39116;59.332;18.034;2022-10-16T07:45:06;11.73;;;8.93;;
10823;SDS011;39116;59.332;18.034;2022-10-16T07:47:32;11.25;;;8.23;;
10823;SDS011;39116;59.332;18.034;2022-10-16T07:49:59;10.25;;;8.40;;
10823;SDS011;39116;59.332;18.034;2022-10-16T07:52:25;11.68;;;8.30;;
10823;SDS011;39116;59.332;18.034;2022-10-16T07:54:52;9.27;;;7.45;;
10823;SDS011;39116;59.332;18.034;2022-10-16T07:57:18;10.68;;;7.55;;
10823;SDS011;39116;59.332;18.034;2022-10-16T07:59:45;11.15;;;8.43;;
10823;SDS011;39116;59.332;18.034;2022-10-16T08:02:13;11.60;;;8.18;;
10823;SDS011;39116;59.332;18.034;2022-10-16T08:04:40;11.85;;;6.85;;
10823;SDS011;39116;59.332;18.034;2022-10-16T08:07:06;9.50;;;7.10;;
10823;SDS011;39116;59.332;18.034;2022-10-16T08:09:33;8.82;;;6.82;;
10823;SDS011;39116;59.332;18.034;2022-10-16T08:12:00;8.05;;;6.38;;
10823;SDS011;39116;59.332;18.034;2022-10-16T08:14:27;8.55;;;6.22;;
10823;SDS011;39116;59.332;18.034;2022-10-16T08:16:54;9.18;;;6.18;;
10823;SDS011;39116;59.332;18.034;2022-10-16T08:19:22;7.38;;;6.30;;
10823;SDS011;39116;59.332;18.034;2022-10-16T08:21:48;7.30;;;6.40;;
10823;SDS011;39116;59.332;18.034;2022-10-16T08:24:15;6.70;;;6.00;;
10823;SDS011;39116;59.332;18.034;2022-10-16T08:26:41;7.15;;;5.43;;
10823;SDS011;39116;59.332;18.034;2022-10-16T08:29:08;7.68;;;6.00;;
10823;SDS011;39116;59.332;18.034;2022-10-16T08:31:34;7.13;;;5.32;;
10823;SDS011;39116;59.332;18.034;2022-10-16T08:34:01;5.80;;;5.30;;
10823;SDS011;39116;59.332;18.034;2022-10-16T08:36:29;8.05;;;5.30;;
10823;SDS011;39116;59.332;18.034;2022-10-16T08:38:55;6.60;;;5.78;;
10823;SDS011;39116;59.332;18.034;2022-10-16T08:46:49;10.32;;;5.32;;
10823;SDS011;39116;59.332;18.034;2022-10-16T08:49:21;7.00;;;5.28;;
10823;SDS011;39116;59.332;18.034;2022-10-16T08:51:51;7.15;;;4.80;;
10823;SDS011;39116;59.332;18.034;2022-10-16T08:54:28;5.65;;;5.03;;
10823;SDS011;39116;59.332;18.034;2022-10-16T08:56:56;7.53;;;5.32;;
10823;SDS011;39116;59.332;18.034;2022-10-16T08:59:22;9.50;;;4.80;;
10823;SDS011;39116;59.332;18.034;2022-10-16T09:01:49;6.47;;;5.22;;
10823;SDS011;39116;59.332;18.034;2022-10-16T09:04:35;8.60;;;4.97;;
10823;SDS011;39116;59.332;18.034;2022-10-16T09:07:09;7.40;;;4.30;;
10823;SDS011;39116;59.332;18.034;2022-10-16T09:12:36;6.45;;;4.30;;
10823;SDS011;39116;59.332;18.034;2022-10-16T09:15:07;6.90;;;4.28;;
10823;SDS011;39116;59.332;18.034;2022-10-16T09:17:39;4.85;;;4.22;;
10823;SDS011;39116;59.332;18.034;2022-10-16T09:20:14;7.30;;;4.13;;
10823;SDS011;39116;59.332;18.034;2022-10-16T09:22:45;6.47;;;4.35;;
10823;SDS011;39116;59.332;18.034;2022-10-16T09:25:13;6.40;;;4.35;;
10823;SDS011;39116;59.332;18.034;2022-10-16T09:27:40;5.82;;;4.38;;
10823;SDS011;39116;59.332;18.034;2022-10-16T09:30:10;4.30;;;3.83;;
10823;SDS011;39116;59.332;18.034;2022-10-16T09:32:37;9.32;;;4.32;;
10823;SDS011;39116;59.332;18.034;2022-10-16T09:35:09;5.88;;;4.30;;
10823;SDS011;39116;59.332;18.034;2022-10-16T09:37:37;6.70;;;4.20;;
10823;SDS011;39116;59.332;18.034;2022-10-16T09:40:06;6.72;;;3.50;;
10823;SDS011;39116;59.332;18.034;2022-10-16T09:42:34;5.75;;;3.50;;
10823;SDS011;39116;59.332;18.034;2022-10-16T09:45:03;6.28;;;3.80;;
10823;SDS011;39116;59.332;18.034;2022-10-16T09:47:30;5.93;;;3.75;;
10823;SDS011;39116;59.332;18.034;2022-10-16T09:49:57;5.68;;;3.90;;
10823;SDS011;39116;59.332;18.034;2022-10-16T09:52:27;6.20;;;3.67;;
10823;SDS011;39116;59.332;18.034;2022-10-16T09:54:55;5.60;;;4.03;;
10823;SDS011;39116;59.332;18.034;2022-10-16T09:57:23;7.40;;;4.03;;
10823;SDS011;39116;59.332;18.034;2022-10-16T09:59:50;4.95;;;3.63;;
10823;SDS011;39116;59.332;18.034;2022-10-16T10:02:17;6.30;;;3.88;;
10823;SDS011;39116;59.332;18.034;2022-10-16T10:04:47;7.43;;;3.60;;
10823;SDS011;39116;59.332;18.034;2022-10-16T10:07:18;7.22;;;3.90;;
10823;SDS011;39116;59.332;18.034;2022-10-16T10:09:46;6.22;;;4.25;;
10823;SDS011;39116;59.332;18.034;2022-10-16T10:12:17;6.05;;;3.70;;
10823;SDS011;39116;59.332;18.034;2022-10-16T10:14:46;4.95;;;3.15;;
10823;SDS011;39116;59.332;18.034;2022-10-16T10:17:15;5.70;;;3.40;;
10823;SDS011;39116;59.332;18.034;2022-10-16T10:19:43;4.30;;;3.42;;
10823;SDS011;39116;59.332;18.034;2022-10-16T10:24:56;4.97;;;2.97;;
10823;SDS011;39116;59.332;18.034;2022-10-16T10:27:23;5.05;;;3.25;;
10823;SDS011;39116;59.332;18.034;2022-10-16T10:29:56;4.03;;;3.22;;
10823;SDS011;39116;59.332;18.034;2022-10-16T10:32:27;3.45;;;3.15;;
10823;SDS011;39116;59.332;18.034;2022-10-16T10:34:58;4.80;;;3.17;;
10823;SDS011;39116;59.332;18.034;2022-10-16T10:37:32;7.18;;;3.00;;
10823;SDS011;39116;59.332;18.034;2022-10-16T10:40:01;6.80;;;3.10;;
10823;SDS011;39116;59.332;18.034;2022-10-16T10:42:30;4.53;;;3.28;;
10823;SDS011;39116;59.332;18.034;2022-10-16T10:47:50;5.43;;;3.17;;
10823;SDS011;39116;59.332;18.034;2022-10-16T10:50:21;4.82;;;3.40;;
10823;SDS011;39116;59.332;18.034;2022-10-16T10:52:52;4.15;;;2.83;;
10823;SDS011;39116;59.332;18.034;2022-10-16T10:55:21;4.63;;;3.10;;
10823;SDS011;39116;59.332;18.034;2022-10-16T10:58:00;7.75;;;3.15;;
10823;SDS011;39116;59.332;18.034;2022-10-16T11:00:35;7.95;;;3.20;;
10823;SDS011;39116;59.332;18.034;2022-10-16T11:03:09;7.38;;;3.38;;
10823;SDS011;39116;59.332;18.034;2022-10-16T11:05:40;5.13;;;3.20;;
10823;SDS011;39116;59.332;18.034;2022-10-16T11:08:09;6.13;;;3.13;;
10823;SDS011;39116;59.332;18.034;2022-10-16T11:10:40;5.03;;;2.78;;
10823;SDS011;39116;59.332;18.034;2022-10-16T11:13:10;9.05;;;3.25;;
10823;SDS011;39116;59.332;18.034;2022-10-16T11:15:41;7.93;;;3.08;;
10823;SDS011;39116;59.332;18.034;2022-10-16T11:18:13;5.57;;;2.65;;
10823;SDS011;39116;59.332;18.034;2022-10-16T11:20:42;6.97;;;2.85;;
10823;SDS011;39116;59.332;18.034;2022-10-16T11:23:14;5.78;;;3.08;;
10823;SDS011;39116;59.332;18.034;2022-10-16T11:25:41;6.65;;;2.83;;
10823;SDS011;39116;59.332;18.034;2022-10-16T11:28:10;4.43;;;2.40;;
10823;SDS011;39116;59.332;18.034;2022-10-16T11:30:39;5.25;;;2.67;;
10823;SDS011;39116;59.332;18.034;2022-10-16T11:33:10;5.53;;;2.47;;
10823;SDS011;39116;59.332;18.034;2022-10-16T11:35:47;9.40;;;2.97;;
10823;SDS011;39116;59.332;18.034;2022-10-16T11:38:17;5.38;;;2.65;;
10823;SDS011;39116;59.332;18.034;2022-10-16T11:40:47;5.40;;;3.08;;
10823;SDS011;39116;59.332;18.034;2022-10-16T11:43:17;3.97;;;2.53;;
10823;SDS011;39116;59.332;18.034;2022-10-16T11:45:49;6.80;;;3.03;;
10823;SDS011;39116;59.332;18.034;2022-10-16T11:48:18;6.05;;;2.50;;
10823;SDS011;39116;59.332;18.034;2022-10-16T11:50:48;4.60;;;2.60;;
10823;SDS011;39116;59.332;18.034;2022-10-16T11:53:18;5.47;;;2.38;;
10823;SDS011;39116;59.332;18.034;2022-10-16T11:55:47;7.32;;;2.80;;
10823;SDS011;39116;59.332;18.034;2022-10-16T11:58:16;5.50;;;3.30;;
10823;SDS011;39116;59.332;18.034;2022-10-16T12:00:46;4.88;;;2.90;;
10823;SDS011;39116;59.332;18.034;2022-10-16T12:03:16;7.35;;;2.90;;
10823;SDS011;39116;59.332;18.034;2022-10-16T12:05:52;5.10;;;2.85;;
10823;SDS011;39116;59.332;18.034;2022-10-16T12:08:21;6.28;;;3.17;;
10823;SDS011;39116;59.332;18.034;2022-10-16T12:10:47;6.47;;;3.35;;
10823;SDS011;39116;59.332;18.034;2022-10-16T12:13:27;7.05;;;3.05;;
10823;SDS011;39116;59.332;18.034;2022-10-16T12:16:03;5.32;;;2.95;;
10823;SDS011;39116;59.332;18.034;2022-10-16T12:18:30;7.90;;;2.90;;
10823;SDS011;39116;59.332;18.034;2022-10-16T12:20:58;7.10;;;3.08;;
10823;SDS011;39116;59.332;18.034;2022-10-16T12:23:30;6.95;;;3.13;;
10823;SDS011;39116;59.332;18.034;2022-10-16T12:25:57;6.28;;;3.30;;
10823;SDS011;39116;59.332;18.034;2022-10-16T12:28:26;6.35;;;3.40;;
10823;SDS011;39116;59.332;18.034;2022-10-16T12:30:54;6.38;;;3.13;;
10823;SDS011;39116;59.332;18.034;2022-10-16T12:33:22;6.50;;;3.17;;
10823;SDS011;39116;59.332;18.034;2022-10-16T12:35:49;4.32;;;3.40;;
10823;SDS011;39116;59.332;18.034;2022-10-16T12:38:18;3.55;;;2.40;;
10823;SDS011;39116;59.332;18.034;2022-10-16T12:40:45;4.68;;;2.70;;
10823;SDS011;39116;59.332;18.034;2022-10-16T12:46:22;5.47;;;2.78;;
10823;SDS011;39116;59.332;18.034;2022-10-16T12:48:49;4.93;;;2.80;;
10823;SDS011;39116;59.332;18.034;2022-10-16T12:51:22;4.25;;;2.50;;
10823;SDS011;39116;59.332;18.034;2022-10-16T12:53:59;3.50;;;2.75;;
10823;SDS011;39116;59.332;18.034;2022-10-16T12:56:27;3.25;;;2.63;;
10823;SDS011;39116;59.332;18.034;2022-10-16T12:59:00;5.93;;;2.80;;
10823;SDS011;39116;59.332;18.034;2022-10-16T13:01:34;4.20;;;2.45;;
10823;SDS011;39116;59.332;18.034;2022-10-16T13:04:05;3.90;;;2.60;;
10823;SDS011;39116;59.332;18.034;2022-10-16T13:06:38;4.13;;;3.00;;
10823;SDS011;39116;59.332;18.034;2022-10-16T13:12:01;6.30;;;2.67;;
10823;SDS011;39116;59.332;18.034;2022-10-16T13:17:15;3.30;;;2.50;;
10823;SDS011;39116;59.332;18.034;2022-10-16T13:19:45;4.00;;;2.85;;
10823;SDS011;39116;59.332;18.034;2022-10-16T13:22:17;5.65;;;3.05;;
10823;SDS011;39116;59.332;18.034;2022-10-16T13:24:51;4.70;;;2.30;;
10823;SDS011;39116;59.332;18.034;2022-10-16T13:27:23;4.60;;;3.10;;
10823;SDS011;39116;59.332;18.034;2022-10-16T13:29:54;2.88;;;2.35;;
10823;SDS011;39116;59.332;18.034;2022-10-16T13:32:26;3.92;;;2.50;;
10823;SDS011;39116;59.332;18.034;2022-10-16T13:34:52;6.95;;;2.90;;
10823;SDS011;39116;59.332;18.034;2022-10-16T13:37:21;5.80;;;2.72;;
10823;SDS011;39116;59.332;18.034;2022-10-16T13:39:48;4.63;;;3.03;;
10823;SDS011;39116;59.332;18.034;2022-10-16T13:42:18;4.53;;;2.60;;
10823;SDS011;39116;59.332;18.034;2022-10-16T13:44:49;5.13;;;2.55;;
10823;SDS011;39116;59.332;18.034;2022-10-16T13:47:17;3.83;;;2.47;;
10823;SDS011;39116;59.332;18.034;2022-10-16T13:49:44;5.32;;;2.50;;
10823;SDS011;39116;59.332;18.034;2022-10-16T13:52:17;4.05;;;2.38;;
10823;SDS011;39116;59.332;18.034;2022-10-16T13:54:44;4.40;;;2.47;;
10823;SDS011;39116;59.332;18.034;2022-10-16T13:57:12;9.02;;;2.47;;
10823;SDS011;39116;59.332;18.034;2022-10-16T13:59:39;3.72;;;2.08;;
10823;SDS011;39116;59.332;18.034;2022-10-16T14:02:15;5.43;;;2.40;;
10823;SDS011;39116;59.332;18.034;2022-10-16T14:04:43;5.00;;;2.30;;
10823;SDS011;39116;59.332;18.034;2022-10-16T14:07:12;4.82;;;2.30;;
10823;SDS011;39116;59.332;18.034;2022-10-16T14:09:39;3.33;;;1.90;;
10823;SDS011;39116;59.332;18.034;2022-10-16T14:12:07;3.63;;;2.17;;
10823;SDS011;39116;59.332;18.034;2022-10-16T14:14:35;6.03;;;2.55;;
10823;SDS011;39116;59.332;18.034;2022-10-16T14:17:06;7.53;;;2.22;;
10823;SDS011;39116;59.332;18.034;2022-10-16T14:19:40;6.57;;;2.63;;
10823;SDS011;39116;59.332;18.034;2022-10-16T14:22:18;5.75;;;2.40;;
10823;SDS011;39116;59.332;18.034;2022-10-16T14:24:47;5.28;;;2.33;;
10823;SDS011;39116;59.332;18.034;2022-10-16T14:27:20;8.65;;;3.95;;
10823;SDS011;39116;59.332;18.034;2022-10-16T14:29:49;7.05;;;2.65;;
10823;SDS011;39116;59.332;18.034;2022-10-16T14:32:20;4.32;;;3.45;;
10823;SDS011;39116;59.332;18.034;2022-10-16T14:34:53;6.88;;;3.40;;
10823;SDS011;39116;59.332;18.034;2022-10-16T14:37:22;6.85;;;2.97;;
10823;SDS011;39116;59.332;18.034;2022-10-16T14:39:49;5.55;;;3.75;;
10823;SDS011;39116;59.332;18.034;2022-10-16T14:42:16;5.97;;;4.88;;
10823;SDS011;39116;59.332;18.034;2022-10-16T14:44:44;5.85;;;3.67;;
10823;SDS011;39116;59.332;18.034;2022-10-16T14:47:13;5.47;;;2.88;;
10823;SDS011;39116;59.332;18.034;2022-10-16T14:49:41;7.75;;;2.95;;
10823;SDS011;39116;59.332;18.034;2022-10-16T14:52:10;5.85;;;3.45;;
10823;SDS011;39116;59.332;18.034;2022-10-16T14:54:37;5.45;;;2.60;;